Leonardo Santos

Olheiro-Chefe - Millonarios
19 Ago 2027
Quinta-feira
Processo

Personalidade

Adaptabilidade (15) Ambição (17) Controvérsia (3) Lealdade (5) Pressão (8) Profissionalismo (1) Espírito Esportivo (5) Temperamento (14)

Perfil

Estilo de Treinamento Democrático
Licença Nacional A
Determinação 12
Gestão de Pessoas 7
Motivação 5
Disciplina 5
Satisfação no Trabalho
100%
Fadiga
0%
Função Olheiro-Chefe
Salário 61.1K p/s
Contrato 14.03.2029

Desempenho

Comportamento Bom
Eficácia do Treinamento
61%
Desenvolvimento do Jogador
65%
Prevenção de Lesões
35%
Implementação Tática
70%

Eventos Recentes

Participou de uma reunião de recrutamento agora
Recomendou um alvo de transferência agora
Recomendou um alvo de transferência agora
Recomendou um alvo de transferência agora
Recomendou um alvo de transferência agora
Recomendou um alvo de transferência agora
Participou de uma reunião de recrutamento agora
Participou de uma reunião de recrutamento 7d atrás

Monitorando agora

229
Jogador Clube Status Habilidade Confiança Observado Última observação Último voto
Joel Ezra Enyimba Ativo 89 / 92 40% 1 05.08.2027 -
Keagan Tau Ajax Cape Town Ativo 85 / 115 40% 1 03.08.2027 -
Juan Giménez Celta Ativo 130 / 119 40% 1 03.08.2027 -
Darryl Bakola Padova Ativo 110 / 130 40% 1 02.08.2027 -
Alan Morinigo Olimpia Ativo 115 / 127 40% 1 02.08.2027 -
Jonathan Marulanda Leones Ativo 107 / 113 51% 1 19.07.2027 -
Bernardo Lima Porto Ativo 104 / 116 40% 1 19.07.2027 -
Jofre Torrents Ajax Ativo 139 / 140 40% 1 19.07.2027 -
Gonçalo Oliveira Benfica Ativo 106 / 107 40% 1 12.07.2027 -
Caleb Yirenkyi Coventry City Ativo 127 / 136 40% 1 12.07.2027 -
Christ Inao Oulaï Fiorentina Ativo 121 / 150 40% 1 05.07.2027 -
Leandro Martins Benfica Ativo 100 / 99 40% 1 05.07.2027 -
Giacomo Raspadori Atalanta Ativo 136 / 154 40% 1 28.06.2027 -
Aune Heggebø West Bromwich Albion Perdido 125 / 135 40% 1 14.06.2027 -
Pedro de la Vega FC Dallas Ativo 133 / 134 66% 1 01.06.2027 Aprovar
Kyle Wootton Stockport County Ativo 121 / 109 40% 1 01.06.2027 -
Elijah Adebayo Luton Town Ativo 116 / 119 40% 1 01.06.2027 -
Tommy Conway Middlesbrough Ativo 147 / 128 40% 1 31.05.2027 -
Max Bird Birmingham Ativo 128 / 121 40% 6 30.05.2027 -
Noah Sadiki Sunderland Ativo 161 / 142 40% 4 30.05.2027 -
Guille Rosas Gijón Ativo 141 / 127 40% 1 29.05.2027 -
Nat Phillips West Bromwich Albion Ativo 134 / 129 40% 1 29.05.2027 -
Welington Southampton Ativo 125 / 129 40% 5 28.05.2027 -
Nathan Collins Brentford Ativo 145 / 154 40% 3 28.05.2027 -
Dara O'Shea Ipswich Town Ativo 124 / 144 40% 6 27.05.2027 -
Azor Matusiwa Ipswich Town Ativo 134 / 133 40% 2 27.05.2027 -
Igor Burnley Ativo 159 / 148 40% 3 26.05.2027 -
Adam Wharton Crystal Palace Ativo 141 / 153 40% 8 25.05.2027 -
Flynn Downes Southampton Ativo 137 / 132 40% 1 25.05.2027 -
Daniel Iversen Preston Ativo 123 / 129 40% 1 25.05.2027 -
Yehor Yarmoliuk Brentford Ativo 144 / 144 40% 4 23.05.2027 -
Anton Stach Leeds United Ativo 161 / 156 40% 3 22.05.2027 -
Toby Collyer West Bromwich Albion Ativo 131 / 133 40% 2 21.05.2027 -
Lewis Bate Stockport County Ativo 130 / 112 40% 1 21.05.2027 -
Sergio Barlocco Trento Ativo 101 / 125 40% 1 20.05.2027 -
Juanlu Bournemouth Ativo 139 / 152 40% 2 19.05.2027 -
Adrien Truffert Bournemouth Ativo 165 / 162 40% 4 16.05.2027 Observar
Bosun Lawal Stoke City Ativo 140 / 127 40% 2 16.05.2027 -
Tyler Adams Bournemouth Ativo 142 / 148 40% 6 15.05.2027 -
Callum Brittain Middlesbrough Ativo 117 / 122 40% 5 14.05.2027 -
Jacques Ekomié Wrexham Ativo 141 / 134 40% 2 14.05.2027 -
Justin Bijlow Genoa Ativo 161 / 138 40% 1 14.05.2027 -
Michele Cerofolini Bari Ativo 128 / 132 40% 1 14.05.2027 -
Corey Addai Stockport County Ativo 97 / 114 40% 1 12.05.2027 -
Lukas Jensen Millwall Ativo 126 / 118 40% 3 10.05.2027 -
Jordan Amissah Burton Albion Ativo 89 / 115 40% 1 10.05.2027 -
Japhet Tanganga Sheffield United Ativo 125 / 143 40% 5 08.05.2027 -
Pol Tristán Barnsley Ativo 113 / 111 40% 1 08.05.2027 -
Francesco D'Alterio Ternana Ativo 105 / 106 40% 1 08.05.2027 -
Ethan Galbraith Swansea City Ativo 136 / 126 40% 7 07.05.2027 -
Darlin Yongwa Norwich City Ativo 127 / 125 40% 1 07.05.2027 -
Milan van Ewijk Mansfield Town Ativo 115 / 121 40% 2 05.05.2027 -
Xaver Schlager Nottingham Forest Ativo 153 / 149 40% 3 05.05.2027 -
Egil Selvik Watford Ativo 136 / 137 40% 2 04.05.2027 -
Maduka Okoye Udinese Ativo 134 / 130 40% 1 03.05.2027 Mais informações
James Trafford Leeds United Ativo 148 / 152 40% 1 03.05.2027 -
Óscar Mingueza Crystal Palace Ativo 157 / 158 40% 5 01.05.2027 -
Paik Seung-Ho Birmingham Ativo 118 / 126 40% 2 30.04.2027 -
Williams Manyama SuperSport United Ativo 106 / 114 40% 4 29.04.2027 -
Zach Hemming Chesterfield Ativo 107 / 103 40% 2 29.04.2027 -
Elia Boseggia Novara Ativo 112 / 111 40% 1 29.04.2027 -
Edoardo Bove Watford Ativo 122 / 143 40% 1 29.04.2027 -
Teden Mengi Luton Town Ativo 122 / 124 40% 1 29.04.2027 -
Derry Murkin Derby County Ativo 116 / 138 40% 3 27.04.2027 -
Jacob Greaves Ipswich Town Ativo 121 / 123 40% 1 25.04.2027 -
Florentino Luís Ipswich Town Ativo 137 / 141 40% 2 22.04.2027 -
Rubén Duarte Legia Ativo 115 / 128 40% 6 20.04.2027 -
Radek Vítek Middlesbrough Ativo 119 / 141 40% 1 20.04.2027 -
Shea Charles Southampton Ativo 153 / 135 40% 6 18.04.2027 -
Saša Lukić Ipswich Town Ativo 145 / 150 40% 3 18.04.2027 -
Michael Cooper Sheffield United Ativo 125 / 135 40% 1 18.04.2027 -
Robin Roefs Sunderland Ativo 153 / 156 40% 1 15.04.2027 -
Ross McCrorie Bristol City Ativo 116 / 127 40% 3 13.04.2027 -
Aaron Hickey Brentford Ativo 152 / 137 40% 2 13.04.2027 -
Harry Clarke Preston Ativo 117 / 129 40% 3 12.04.2027 -
Kenny Tete Fulham Ativo 127 / 141 40% 2 12.04.2027 -
Anel Ahmedhodžić Burnley Ativo 136 / 146 40% 3 10.04.2027 -
Kristoffer Lund Birmingham Ativo 134 / 135 40% 2 09.04.2027 -
Josh Tymon Swansea City Ativo 142 / 122 40% 1 09.04.2027 -
Adam Randell Bristol City Ativo 119 / 129 40% 1 08.04.2027 -
Murillo Nottingham Forest Ativo 135 / 159 40% 1 08.04.2027 -
Nordi Mukiele Sunderland Ativo 131 / 153 40% 4 07.04.2027 -
Di'Shon Bernard Sheffield Wednesday Ativo 120 / 129 40% 1 04.04.2027 -
Atsuki Ito Bolton Wanderers Ativo 110 / 120 40% 2 01.04.2027 -
Ryan Sessegnon Fulham Ativo 157 / 142 40% 3 31.03.2027 -
Ousmane Diomande Nottingham Forest Ativo 152 / 164 40% 1 30.03.2027 -
Daniel Muñoz Nottingham Forest Ativo 167 / 136 40% 2 26.03.2027 -
Quinten Timber Crystal Palace Ativo 160 / 162 40% 4 24.03.2027 -
Sidny Lopes Cabral Trabzonspor Ativo 123 / 130 40% 1 23.03.2027 -
Pelle Mattsson Norwich City Ativo 120 / 130 40% 3 20.03.2027 -
Josh Edwards Charlton Athletic Ativo 108 / 124 40% 1 20.03.2027 -
Callum Doyle Wrexham Ativo 136 / 142 40% 2 18.03.2027 -
Nuno Tavares Lazio Ativo 148 / 143 40% 3 15.03.2027 -
Christian Krasnodar Ativo 126 / 132 40% 6 12.03.2027 -
Lewis Ferguson Bologna Ativo 138 / 144 40% 2 10.03.2027 -
Antonee Robinson Fulham Ativo 137 / 160 40% 2 05.03.2027 -
Israel Reyes CSKA Moscow Ativo 142 / 139 40% 5 04.03.2027 -
Joachim Andersen Fulham Ativo 130 / 153 40% 1 28.02.2027 -
Aidan Morris Middlesbrough Ativo 137 / 141 40% 2 27.02.2027 -
Rob Atkinson Bristol City Ativo 110 / 119 40% 3 25.02.2027 -
Jordan Lotomba Bloemfontein Celtic Ativo 108 / 130 40% 1 24.02.2027 -
Takehiro Tomiyasu Crystal Palace Ativo 130 / 142 40% 2 23.02.2027 -
Thalente Mbatha Orlando Pirates Ativo 136 / 116 40% 1 23.02.2027 -
Nicolás Fernández Mercau Shakhtar Ativo 134 / 132 40% 2 12.02.2027 -
Alessandro Buongiorno Sassuolo Ativo 172 / 151 40% 2 01.02.2027 -
Toti Wolverhampton Ativo 137 / 120 40% 1 28.01.2027 -
Tomás Ribeiro Cultural Leonesa Ativo 112 / 118 40% 1 28.01.2027 -
Jack Currie Oxford United Ativo 109 / 129 40% 1 28.01.2027 -
Lewis Cook Bournemouth Ativo 147 / 141 40% 1 26.01.2027 -
Gustavo Mantuan Zenit Ativo 121 / 137 40% 1 15.01.2027 -
Lewis Gibson Preston Ativo 132 / 116 40% 1 13.01.2027 -
Brian De Keersmaecker Oxford United Ativo 127 / 113 40% 1 09.01.2027 -
Yacine Adli Al-Shabab Ativo 123 / 130 40% 1 09.01.2027 -
Hamza Choudhury Leicester City Ativo 134 / 138 40% 1 07.01.2027 -
Oliver Skipp Leicester City Ativo 139 / 134 40% 1 04.01.2027 -
Santiago González Tigre Ativo 116 / 120 40% 2 31.12.2026 -
Lucas Souto Defensa y Justicia Ativo 114 / 120 40% 1 31.12.2026 -
Lukáš Červ Viktoria Plzen Ativo 139 / 128 40% 2 29.12.2026 -
Damián Fernández Defensa y Justicia Ativo 117 / 134 40% 1 14.12.2026 -
Ryan Christie Bournemouth Ativo 156 / 152 40% 1 14.12.2026 -
Francisco Álvarez Argentinos Juniors Ativo 115 / 119 40% 1 07.12.2026 -
Guilherme Ankaragucu Ativo 119 / 113 40% 1 06.12.2026 -
Bamba Dieng Crvena Zvezda Ativo 131 / 123 40% 1 05.12.2026 -
Leonardo Pico Fortaleza CEIF Ativo 112 / 110 51% 1 04.12.2026 -
Jhonatan Candia Barracas Central Ativo 114 / 116 40% 1 02.12.2026 -
Luiz Henrique West Ham United Negociando 142 / 143 68% 1 01.12.2026 Aprovar
Erick Sánchez OGC Nice Ativo 139 / 139 66% 1 01.12.2026 Aprovar
Roberto Alvarado Monaco Ativo 139 / 139 66% 1 01.12.2026 Aprovar
Stanislav Agkatsev Sunderland Negociando 132 / 133 66% 1 01.12.2026 Aprovar
Marquinhos Spartak Moscow Ativo 148 / 134 40% 1 30.11.2026 -
Jaminton Campaz Rosario Central Ativo 126 / 134 40% 1 30.11.2026 -
George Hirst Stoke City Ativo 121 / 134 40% 2 28.11.2026 -
Joe Gelhardt Hull City Ativo 135 / 140 40% 1 28.11.2026 -
Romelu Castagne KV Oostende Ativo 144 / 123 40% 3 27.11.2026 Observar
Julián Quiñones Lokomotiv Moscow Ativo 151 / 135 40% 1 27.11.2026 Mais informações
Youssef En-Nesyri Al-Ittihad Ativo 149 / 129 40% 5 26.11.2026 -
Luciano Gondou CSKA Moscow Ativo 149 / 124 40% 2 26.11.2026 -
Kerem Aktürkoğlu Fenerbahce Ativo 143 / 141 40% 5 25.11.2026 -
Álvaro Rodríguez Bournemouth Ativo 123 / 148 40% 1 25.11.2026 -
Stav Toriel Hapoel Tel Aviv Ativo 133 / 139 40% 2 24.11.2026 -
Yusuke Matsuo Esteghlal Ativo 113 / 137 40% 1 24.11.2026 -
Razvan Balasa Crvena Zvezda Negociando 158 / 136 40% 7 23.11.2026 -
Zian Flemming Ipswich Town Ativo 134 / 129 40% 1 23.11.2026 -
Kasey McAteer Ipswich Town Ativo 136 / 132 40% 1 23.11.2026 -
Diego Rossi Monterrey Ativo 148 / 139 40% 2 21.11.2026 -
Nicolò Tresoldi Club Brugge Ativo 128 / 126 40% 3 21.11.2026 -
Federico Viñas Toluca Ativo 118 / 133 40% 1 18.11.2026 -
Mattia Felici Cagliari Ativo 141 / 133 40% 1 18.11.2026 -
Jorge Sánchez Atlas Ativo 140 / 135 40% 1 17.11.2026 -
Ozziel Herrera Tigres Ativo 134 / 122 40% 3 16.11.2026 -
Álvaro Angulo Pumas UNAM Ativo 125 / 134 40% 2 14.11.2026 -
Juan Pablo Domínguez Leon Ativo 130 / 132 40% 1 14.11.2026 -
Joaquim Tigres Ativo 135 / 123 40% 1 14.11.2026 -
Luka Kurtovic NK Domzale Ativo 118 / 138 40% 1 12.11.2026 -
Domagoj Drožđek Tractor Ativo 112 / 111 40% 1 12.11.2026 -
Carlos Rodríguez Cruz Azul Ativo 142 / 144 40% 2 11.11.2026 -
Nahuel Tenaglia Tigres Ativo 140 / 138 40% 2 11.11.2026 -
Erick Reyes Toluca Ativo 149 / 135 40% 2 10.11.2026 Mais informações
Petar Musa Adana Demirspor Ativo 151 / 124 40% 3 08.11.2026 -
Gastón Lodico Racing Club Ativo 124 / 125 40% 2 08.11.2026 -
Ola Brynhildsen Bodo/Glimt Ativo 114 / 122 40% 2 08.11.2026 -
Brian Rodríguez Club America Ativo 127 / 120 40% 1 07.11.2026 -
Lewis Morgan SuperSport United Ativo 121 / 126 40% 2 05.11.2026 -
Oleksii Hutsuliak Polissia Ativo 121 / 117 40% 1 04.11.2026 -
Tiago Palacios Estudiantes Ativo 126 / 136 40% 1 03.11.2026 -
Breel Embolo Atlanta United FC Ativo 134 / 131 40% 3 01.11.2026 -
Hany Mukhtar Spezia Ativo 149 / 141 40% 3 31.10.2026 -
Rafiu Durosinmi Racing Genk Ativo 138 / 141 40% 1 30.10.2026 -
Oussama Idrissi Pachuca Ativo 138 / 134 40% 2 29.10.2026 -
Jeremy Márquez Cruz Azul Ativo 128 / 127 40% 1 29.10.2026 -
Alexey Miranchuk St. Gallen Ativo 129 / 133 40% 3 25.10.2026 -
Morgan Whittaker Middlesbrough Ativo 112 / 117 40% 1 24.10.2026 -
Oli McBurnie Hull City Ativo 115 / 125 40% 1 22.10.2026 -
Orbelín Pineda Monterrey Ativo 149 / 135 40% 3 21.10.2026 -
Felipe Augusto Zenit Ativo 134 / 124 40% 4 21.10.2026 -
Soufiane Rahimi Guadalajara Ativo 149 / 141 40% 1 21.10.2026 -
Aarón Molinas Defensa y Justicia Ativo 127 / 130 40% 1 21.10.2026 -
Jesús Angulo Tigres Ativo 146 / 137 40% 3 20.10.2026 -
Alejandro Zendejas Club America Ativo 141 / 142 40% 1 19.10.2026 -
Manfred Ugalde Spartak Moscow Ativo 116 / 139 40% 2 18.10.2026 -
Ramón Juárez Club America Ativo 135 / 136 40% 1 18.10.2026 -
Salvador Reyes Leon Ativo 122 / 121 40% 1 17.10.2026 -
Everton Bala Levski Ativo 117 / 134 40% 1 15.10.2026 -
Agustín Palavecino Cruz Azul Ativo 136 / 139 40% 3 14.10.2026 -
Matías Zaracho Racing Club Ativo 114 / 128 40% 1 14.10.2026 -
Fernando Valenzuela Queretaro Ativo 132 / 131 40% 2 11.10.2026 -
Callum O'Hare Sheffield United Ativo 149 / 127 40% 1 09.10.2026 -
Vicente Poggi Godoy Cruz Ativo 134 / 129 40% 1 08.10.2026 -
Gabriel Neves Estudiantes Ativo 132 / 118 40% 1 08.10.2026 -
Franco Díaz Temperley Ativo 135 / 115 40% 1 07.10.2026 -
Santiago Longo Belgrano Ativo 114 / 120 40% 2 04.10.2026 -
Nicolás Tripichio San Lorenzo Ativo 114 / 123 40% 1 04.10.2026 -
Gift Hlatshwayo Free State Stars Ativo 90 / 118 40% 1 04.10.2026 -
Cho Gue-Sung FC Midtjylland Ativo 121 / 125 40% 1 04.10.2026 -
Chuchu Ramírez Nacional Ativo 119 / 134 40% 1 04.10.2026 -
Karim Konaté Red Bull Salzburg Ativo 131 / 149 40% 2 03.10.2026 -
Myrto Uzuni Austin FC Ativo 144 / 129 40% 1 03.10.2026 -
Wessam Abou Ali Columbus Crew Ativo 136 / 136 40% 1 01.10.2026 -
Emiliano Márquez Central Espanol Ativo 110 / 101 40% 1 28.09.2026 -
Alexandr Sobolev Zenit Ativo 129 / 128 40% 2 24.09.2026 -
Víctor Guzmán Toluca Ativo 116 / 124 40% 1 24.09.2026 -
Ryan Gauld Vancouver Whitecaps Ativo 139 / 142 40% 2 22.09.2026 -
Kein Sato FC Tokyo Ativo 137 / 127 40% 1 20.09.2026 -
Jesús Ricardo Angulo Toluca Ativo 134 / 126 40% 2 19.09.2026 -
Jonathan Bamba Chicago Fire Ativo 124 / 126 40% 1 13.09.2026 -
Brian Gutiérrez Guadalajara Ativo 120 / 129 40% 1 12.09.2026 -
Luís Esteves Atlas Ativo 116 / 132 40% 1 12.09.2026 -
Jesus Ferreira Seattle Sounders Ativo 133 / 132 40% 1 11.09.2026 -
Takuma Asano Sanfrecce Hiroshima Ativo 139 / 131 40% 2 09.09.2026 -
Luis Romo Guadalajara Ativo 143 / 142 40% 2 07.09.2026 -
Víctor Dávila Club America Ativo 120 / 135 40% 1 06.09.2026 -
Ifeanyi Emmanuel Niger Tornadoes Ativo 104 / 108 40% 1 03.09.2026 -
Dominik Fiola Haladas Ativo 110 / 138 40% 1 01.09.2026 -
Ernest Muçi Trabzonspor Ativo 128 / 126 40% 1 01.09.2026 -
Ivan Toney Al-Ahli Ativo 147 / 153 40% 1 30.08.2026 -
Carlos Rotondi Cruz Azul Ativo 122 / 136 40% 1 29.08.2026 -
Adnan Courtois KV Oostende Ativo 116 / 127 40% 1 25.08.2026 -
Clayton Olympiacos Ativo 141 / 136 40% 1 22.08.2026 -
Leonardo Borja La Equidad Ativo 135 / 142 40% 1 21.08.2026 -
Tomás Ahumada Audax Italiano Ativo 116 / 114 40% 1 18.08.2026 -
Musa Barrow Al-Khaleej Ativo 116 / 135 40% 1 16.08.2026 -
Sam Surridge Nashville SC Ativo 119 / 123 40% 1 15.08.2026 -
Leo Ceara Kashima Antlers Ativo 118 / 129 40% 1 14.08.2026 -
Barış Alper Yılmaz Galatasaray Ativo 164 / 143 40% 1 14.08.2026 -
Sebastián Córdova Pumas UNAM Ativo 120 / 137 40% 1 12.08.2026 -
Aliou Dieng Valencia Ativo 133 / 118 40% 1 08.08.2026 -
Erison Kawasaki Frontale Ativo 118 / 124 40% 1 08.08.2026 -
Luka Jović AEK Ativo 133 / 126 40% 1 06.08.2026 -
Nacho Vidal Oviedo Ativo 145 / 124 40% 1 01.08.2026 -